sensor_id;sensor_type;location;lat;lon;timestamp;P1;P2;P0
50041;PMS7003;44598;51.606;5.912;2023-04-29T00:02:15;36.86;29.11;16.47
50041;PMS7003;44598;51.606;5.912;2023-04-29T00:15:35;36.62;28.89;16.25
50041;PMS7003;44598;51.606;5.912;2023-04-29T00:28:55;36.62;29.88;17.12
50041;PMS7003;44598;51.606;5.912;2023-04-29T00:55:34;41.66;35.98;19.08
50041;PMS7003;44598;51.606;5.912;2023-04-29T01:08:54;38.9;32.05;18.1
50041;PMS7003;44598;51.606;5.912;2023-04-29T01:22:13;36.14;29.55;16.9
50041;PMS7003;44598;51.606;5.912;2023-04-29T01:35:33;33.37;27.7;15.16
50041;PMS7003;44598;51.606;5.912;2023-04-29T01:48:52;33.74;28.13;15.81
50041;PMS7003;44598;51.606;5.912;2023-04-29T02:02:12;33.86;27.59;15.92
50041;PMS7003;44598;51.606;5.912;2023-04-29T02:15:32;33.25;27.7;15.81
50041;PMS7003;44598;51.606;5.912;2023-04-29T02:42:11;33.49;27.15;15.49
50041;PMS7003;44598;51.606;5.912;2023-04-29T03:08:50;29.53;25.19;14.29
50041;PMS7003;44598;51.606;5.912;2023-04-29T03:22:10;29.05;25.08;14.18
50041;PMS7003;44598;51.606;5.912;2023-04-29T03:35:30;27.61;23.66;13.63
50041;PMS7003;44598;51.606;5.912;2023-04-29T03:48:49;28.69;24.32;13.74
50041;PMS7003;44598;51.606;5.912;2023-04-29T04:02:09;29.17;25.08;13.96
50041;PMS7003;44598;51.606;5.912;2023-04-29T04:15:28;28.81;24.97;13.85
50041;PMS7003;44598;51.606;5.912;2023-04-29T04:28:48;29.29;24.43;14.07
50041;PMS7003;44598;51.606;5.912;2023-04-29T04:42:08;29.41;25.52;14.72
50041;PMS7003;44598;51.606;5.912;2023-04-29T04:55:27;30.49;25.62;14.72
50041;PMS7003;44598;51.606;5.912;2023-04-29T05:08:47;29.29;25.3;14.51
50041;PMS7003;44598;51.606;5.912;2023-04-29T05:22:07;29.05;25.19;14.4
50041;PMS7003;44598;51.606;5.912;2023-04-29T05:35:26;30.61;25.41;14.94
50041;PMS7003;44598;51.606;5.912;2023-04-29T05:48:46;28.45;24.53;14.83
50041;PMS7003;44598;51.606;5.912;2023-04-29T06:02:06;26.29;23.34;13.85
50041;PMS7003;44598;51.606;5.912;2023-04-29T06:15:25;26.29;23.12;14.18
50041;PMS7003;44598;51.606;5.912;2023-04-29T06:28:45;25.09;22.46;13.53
50041;PMS7003;44598;51.606;5.912;2023-04-29T06:42:05;25.09;22.03;13.74
50041;PMS7003;44598;51.606;5.912;2023-04-29T06:55:24;24.25;21.92;13.42
50041;PMS7003;44598;51.606;5.912;2023-04-29T07:08:44;24.61;21.37;13.31
50041;PMS7003;44598;51.606;5.912;2023-04-29T07:22:03;22.21;20.83;12.76
50041;PMS7003;44598;51.606;5.912;2023-04-29T07:35:23;21.85;20.72;12.87
50041;PMS7003;44598;51.606;5.912;2023-04-29T07:48:43;21.73;20.5;12.76
50041;PMS7003;44598;51.606;5.912;2023-04-29T08:28:42;34.1;28.57;17.89
50041;PMS7003;44598;51.606;5.912;2023-04-29T08:42:01;21.85;19.96;13.09
50041;PMS7003;44598;51.606;5.912;2023-04-29T09:08:40;20.41;18.65;11.78
50041;PMS7003;44598;51.606;5.912;2023-04-29T09:22:00;18.37;18.1;11.45
50041;PMS7003;44598;51.606;5.912;2023-04-29T09:48:39;15.25;16.58;10.58
50041;PMS7003;44598;51.606;5.912;2023-04-29T10:15:19;14.29;15.16;9.82
50041;PMS7003;44598;51.606;5.912;2023-04-29T10:28:38;14.53;14.51;9.93
50041;PMS7003;44598;51.606;5.912;2023-04-29T10:41:58;11.65;12.87;9.17
50041;PMS7003;44598;51.606;5.912;2023-04-29T10:55:18;9.61;11.78;7.97
50041;PMS7003;44598;51.606;5.912;2023-04-29T11:08:37;9.85;11.78;8.18
50041;PMS7003;44598;51.606;5.912;2023-04-29T11:21:57;9.25;11.24;7.42
50041;PMS7003;44598;51.606;5.912;2023-04-29T11:35:16;9.25;11.35;8.08
50041;PMS7003;44598;51.606;5.912;2023-04-29T11:48:36;10.45;12.0;7.42
50041;PMS7003;44598;51.606;5.912;2023-04-29T12:15:15;8.17;10.47;7.09
50041;PMS7003;44598;51.606;5.912;2023-04-29T12:28:35;9.49;11.56;7.86
50041;PMS7003;44598;51.606;5.912;2023-04-29T12:41:54;8.53;10.47;7.31
50041;PMS7003;44598;51.606;5.912;2023-04-29T13:08:34;6.49;8.95;6.0
50041;PMS7003;44598;51.606;5.912;2023-04-29T13:21:53;7.21;9.17;6.33
50041;PMS7003;44598;51.606;5.912;2023-04-29T13:48:33;6.85;7.64;5.57
50041;PMS7003;44598;51.606;5.912;2023-04-29T14:28:31;2.04;5.13;3.82
50041;PMS7003;44598;51.606;5.912;2023-04-29T15:35:10;3.6;6.44;4.7
50041;PMS7003;44598;51.606;5.912;2023-04-29T16:01:49;3.73;6.44;4.7
50041;PMS7003;44598;51.606;5.912;2023-04-29T16:15:08;5.17;6.99;5.13
50041;PMS7003;44598;51.606;5.912;2023-04-29T16:28:28;4.21;6.99;5.13
50041;PMS7003;44598;51.606;5.912;2023-04-29T16:41:48;3.48;6.22;4.8
50041;PMS7003;44598;51.606;5.912;2023-04-29T17:21:47;3.85;6.66;4.7
50041;PMS7003;44598;51.606;5.912;2023-04-29T17:35:06;4.45;7.09;5.24
50041;PMS7003;44598;51.606;5.912;2023-04-29T17:48:26;5.77;8.18;5.68
50041;PMS7003;44598;51.606;5.912;2023-04-29T18:15:05;8.29;10.58;7.09
50041;PMS7003;44598;51.606;5.912;2023-04-29T18:41:45;9.01;11.13;7.86
50041;PMS7003;44598;51.606;5.912;2023-04-29T19:08:24;11.77;13.63;9.6
50041;PMS7003;44598;51.606;5.912;2023-04-29T19:21:43;8.65;10.8;7.64
50041;PMS7003;44598;51.606;5.912;2023-04-29T19:35:03;4.57;5.46;4.26
50041;PMS7003;44598;51.606;5.912;2023-04-29T19:48:23;2.88;5.02;3.61
50041;PMS7003;44598;51.606;5.912;2023-04-29T20:01:42;2.52;5.46;3.82
50041;PMS7003;44598;51.606;5.912;2023-04-29T20:15:02;2.64;5.35;3.93
50041;PMS7003;44598;51.606;5.912;2023-04-29T20:28:22;2.64;5.68;3.82
50041;PMS7003;44598;51.606;5.912;2023-04-29T20:41:41;3.0;6.0;4.37
50041;PMS7003;44598;51.606;5.912;2023-04-29T21:08:20;3.97;6.66;4.7
50041;PMS7003;44598;51.606;5.912;2023-04-29T21:35:00;5.29;7.86;4.91
50041;PMS7003;44598;51.606;5.912;2023-04-29T21:48:19;5.41;7.97;5.24
50041;PMS7003;44598;51.606;5.912;2023-04-29T22:28:18;7.57;9.93;6.22
50041;PMS7003;44598;51.606;5.912;2023-04-29T22:41:38;8.53;10.8;6.88
50041;PMS7003;44598;51.606;5.912;2023-04-29T22:54:58;7.93;10.26;6.66
50041;PMS7003;44598;51.606;5.912;2023-04-29T23:08:17;8.29;10.58;7.09
50041;PMS7003;44598;51.606;5.912;2023-04-29T23:21:37;9.73;11.78;7.31
50041;PMS7003;44598;51.606;5.912;2023-04-29T23:34:56;9.37;11.67;7.64
50041;PMS7003;44598;51.606;5.912;2023-04-29T23:48:16;11.77;12.87;7.42
